This is the latest recevied weather packets stored in our database for station/object DB0ROB-10. If no packets are shown the sender has not sent any weather packets the latest 10 day(s).
| Time | Temp. | Humidity | Pressure | Rain* | Wind** | Luminosity | Snow |
|---|---|---|---|---|---|---|---|
| 1777616180 | 14.44° C | 21% | 1023.1 hPa | - | - | - | - |
| 1777615280 | 14.44° C | 21% | 1023.2 hPa | - | - | - | - |
| 1777614380 | 13.33° C | 21% | 1023.1 hPa | - | - | - | - |
| 1777613480 | 12.78° C | 22% | 1022.6 hPa | - | - | - | - |
| 1777612579 | 12.78° C | 22% | 1022.8 hPa | - | - | - | - |
| 1777611679 | 11.67° C | 24% | 1022.7 hPa | - | - | - | - |
| 1777610779 | 11.11° C | 24% | 1022.6 hPa | - | - | - | - |
| 1777609878 | 10° C | 26% | 1022.9 hPa | - | - | - | - |
| 1777608978 | 7.78° C | 29% | 1022.6 hPa | - | - | - | - |
| 1777608078 | 5° C | 35% | 1022.5 hPa | - | - | - | - |
| 1777607177 | 5.56° C | 34% | 1022.4 hPa | - | - | - | - |
| 1777606276 | 5.56° C | 34% | 1022 hPa | - | - | - | - |
| 1777605376 | 5.56° C | 34% | 1022.3 hPa | - | - | - | - |
| 1777604476 | 6.67° C | 32% | 1022.3 hPa | - | - | - | - |
| 1777603576 | 6.11° C | 33% | 1022 hPa | - | - | - | - |
| 1777602676 | 6.11° C | 34% | 1022 hPa | - | - | - | - |
| 1777601822 | 6.11° C | 34% | 1022.4 hPa | - | - | - | - |
| 1777600875 | 5.56° C | 35% | 1022.5 hPa | - | - | - | - |
| 1777599981 | 6.11° C | 34% | 1022.5 hPa | - | - | - | - |
| 1777599081 | 6.11° C | 34% | 1022.1 hPa | - | - | - | - |
| 1777598180 | 6.11° C | 34% | 1022.3 hPa | - | - | - | - |
| 1777597279 | 6.11° C | 35% | 1022.2 hPa | - | - | - | - |
| 1777596379 | 6.11° C | 35% | 1022.4 hPa | - | - | - | - |
| 1777595479 | 6.11° C | 34% | 1022.7 hPa | - | - | - | - |
| 1777594579 | 6.67° C | 33% | 1022.3 hPa | - | - | - | - |
* Rain since midnight (hover to see other rain measurements)
** Current wind speed in m/s (hover to see current wind gust speed)